createdAt,value
2023-02-03T00:00:07.092Z,5.43
2023-02-03T00:02:38.808Z,5.55
2023-02-03T00:05:07.355Z,5.05
2023-02-03T00:07:37.725Z,6.30
2023-02-03T00:10:06.551Z,5.72
2023-02-03T00:12:34.747Z,6.35
2023-02-03T00:15:02.412Z,5.13
2023-02-03T00:17:29.803Z,5.80
2023-02-03T00:19:57.145Z,6.18
2023-02-03T00:22:24.535Z,5.93
2023-02-03T00:24:51.952Z,6.35
2023-02-03T00:27:19.471Z,7.15
2023-02-03T00:29:46.902Z,6.30
2023-02-03T00:32:14.477Z,5.75
2023-02-03T00:34:41.887Z,5.78
2023-02-03T00:37:09.379Z,6.05
2023-02-03T00:39:38.133Z,6.13
2023-02-03T00:42:06.142Z,5.40
2023-02-03T00:44:33.638Z,5.57
2023-02-03T00:47:00.991Z,6.43
2023-02-03T00:49:30.143Z,4.60
2023-02-03T00:51:57.627Z,5.35
2023-02-03T00:54:25.140Z,5.30
2023-02-03T00:56:52.739Z,5.80
2023-02-03T00:59:20.130Z,5.82
2023-02-03T01:01:49.846Z,5.63
2023-02-03T01:04:17.236Z,5.32
2023-02-03T01:06:44.617Z,4.85
2023-02-03T01:09:12.044Z,4.85
2023-02-03T01:11:39.502Z,4.97
2023-02-03T01:14:08.731Z,4.20
2023-02-03T01:16:38.199Z,4.53
2023-02-03T01:19:06.182Z,4.43
2023-02-03T01:21:33.799Z,4.25
2023-02-03T01:24:03.039Z,4.05
2023-02-03T01:26:31.791Z,4.15
2023-02-03T01:29:00.781Z,3.95
2023-02-03T01:31:39.725Z,3.83
2023-02-03T01:34:16.468Z,3.65
2023-02-03T01:36:45.072Z,3.35
2023-02-03T01:39:13.083Z,3.60
2023-02-03T01:41:41.827Z,5.05
2023-02-03T01:44:58.059Z,4.07
2023-02-03T01:47:48.377Z,3.13
2023-02-03T01:50:22.511Z,3.67
2023-02-03T01:53:03.712Z,2.97
2023-02-03T01:55:38.463Z,3.30
2023-02-03T01:58:21.385Z,3.20
2023-02-03T02:00:49.737Z,3.03
2023-02-03T02:03:25.023Z,3.05
2023-02-03T02:06:05.627Z,2.85
2023-02-03T02:08:33.482Z,3.33
2023-02-03T02:11:02.076Z,2.60
2023-02-03T02:13:35.013Z,2.33
2023-02-03T02:16:41.381Z,2.72
2023-02-03T02:19:49.943Z,2.50
2023-02-03T02:22:37.408Z,2.95
2023-02-03T02:25:26.485Z,2.67
2023-02-03T02:28:28.421Z,2.55
2023-02-03T02:31:39.195Z,3.40
2023-02-03T02:34:25.746Z,2.72
2023-02-03T02:37:25.298Z,2.40
2023-02-03T02:40:13.470Z,2.92
2023-02-03T02:43:42.625Z,2.47
2023-02-03T02:46:15.991Z,2.50
2023-02-03T02:49:00.123Z,2.45
2023-02-03T02:51:31.681Z,2.80
2023-02-03T02:54:05.493Z,2.53
2023-02-03T02:56:36.305Z,2.15
2023-02-03T02:59:06.202Z,2.20
2023-02-03T03:01:33.752Z,2.55
2023-02-03T03:04:07.138Z,2.50
2023-02-03T03:06:44.658Z,2.45
2023-02-03T03:09:27.245Z,2.20
2023-02-03T03:12:21.906Z,2.38
2023-02-03T03:14:59.306Z,2.25
2023-02-03T03:17:34.644Z,2.80
2023-02-03T03:20:13.458Z,2.65
2023-02-03T03:22:50.763Z,2.45
2023-02-03T03:25:24.816Z,2.25
2023-02-03T03:28:02.105Z,2.22
2023-02-03T03:30:36.132Z,2.30
2023-02-03T03:33:07.258Z,2.30
2023-02-03T03:36:01.255Z,2.42
2023-02-03T03:38:44.931Z,2.72
2023-02-03T03:41:29.618Z,2.50
2023-02-03T03:44:03.748Z,2.30
2023-02-03T03:46:43.366Z,2.53
2023-02-03T03:49:13.647Z,2.10
2023-02-03T03:51:56.224Z,2.20
2023-02-03T03:54:26.145Z,2.00
2023-02-03T03:57:15.097Z,2.35
2023-02-03T03:59:48.674Z,1.80
2023-02-03T04:02:20.371Z,2.00
2023-02-03T04:04:49.466Z,2.17
2023-02-03T04:07:16.938Z,2.58
2023-02-03T04:09:44.320Z,2.38
2023-02-03T04:12:29.529Z,2.08
2023-02-03T04:14:56.909Z,1.85
2023-02-03T04:17:24.277Z,2.25
2023-02-03T04:19:51.637Z,2.08
2023-02-03T04:22:19.055Z,2.55
2023-02-03T04:24:46.652Z,2.25
2023-02-03T04:27:14.039Z,1.77
2023-02-03T04:29:41.438Z,2.22
2023-02-03T04:32:08.850Z,1.80
2023-02-03T04:34:36.237Z,2.10
2023-02-03T04:37:03.802Z,1.75
2023-02-03T04:39:31.148Z,1.50
2023-02-03T04:41:58.501Z,1.98
2023-02-03T04:44:25.939Z,1.65
2023-02-03T04:46:53.380Z,1.60
2023-02-03T04:49:20.805Z,1.52
2023-02-03T04:51:51.871Z,1.70
2023-02-03T04:54:19.298Z,2.35
2023-02-03T04:56:46.686Z,1.80
2023-02-03T04:59:14.087Z,1.65
2023-02-03T05:01:41.497Z,1.50
2023-02-03T05:04:08.929Z,2.35
2023-02-03T05:06:36.311Z,1.88
2023-02-03T05:09:03.969Z,1.70
2023-02-03T05:11:31.491Z,1.42
2023-02-03T05:13:59.243Z,1.50
2023-02-03T05:16:26.877Z,1.48
2023-02-03T05:18:54.380Z,1.20
2023-02-03T05:21:21.914Z,1.75
2023-02-03T05:23:49.398Z,1.67
2023-02-03T05:26:17.226Z,1.70
2023-02-03T05:28:44.631Z,1.63
2023-02-03T05:31:12.180Z,1.85
2023-02-03T05:33:39.586Z,1.30
2023-02-03T05:36:07.624Z,1.45
2023-02-03T05:38:35.280Z,1.38
2023-02-03T05:41:21.188Z,1.60
2023-02-03T05:43:48.672Z,1.52
2023-02-03T05:46:16.306Z,1.85
2023-02-03T05:48:43.738Z,1.52
2023-02-03T05:51:11.214Z,1.77
2023-02-03T05:53:38.686Z,1.40
2023-02-03T05:56:06.417Z,1.60
2023-02-03T05:58:33.861Z,1.45
2023-02-03T06:01:01.567Z,1.85
2023-02-03T06:03:29.124Z,1.33
2023-02-03T06:05:56.733Z,1.60
2023-02-03T06:08:28.339Z,1.42
2023-02-03T06:11:00.704Z,1.77
2023-02-03T06:13:28.609Z,1.70
2023-02-03T06:15:56.315Z,1.85
2023-02-03T06:18:30.242Z,1.30
2023-02-03T06:20:57.661Z,1.75
2023-02-03T06:23:25.089Z,1.88
2023-02-03T06:25:52.611Z,1.30
2023-02-03T06:28:20.298Z,1.63
2023-02-03T06:30:52.008Z,1.90
2023-02-03T06:33:20.506Z,1.70
2023-02-03T06:35:48.075Z,1.90
2023-02-03T06:38:15.727Z,1.73
2023-02-03T06:40:48.633Z,2.10
2023-02-03T06:43:16.985Z,2.13
2023-02-03T06:45:47.453Z,1.60
2023-02-03T06:48:15.151Z,1.75
2023-02-03T06:50:43.023Z,2.10
2023-02-03T06:53:10.659Z,2.20
2023-02-03T06:55:38.105Z,1.83
2023-02-03T06:58:05.481Z,2.22
2023-02-03T07:00:32.991Z,1.38
2023-02-03T07:03:02.313Z,2.22
2023-02-03T07:05:30.346Z,1.80
2023-02-03T07:07:59.010Z,1.85
2023-02-03T07:10:26.898Z,1.65
2023-02-03T07:12:54.603Z,1.85
2023-02-03T07:15:21.980Z,1.77
2023-02-03T07:17:54.430Z,2.20
2023-02-03T07:20:23.829Z,2.05
2023-02-03T07:22:53.519Z,2.08
2023-02-03T07:25:21.642Z,1.92
2023-02-03T07:27:49.160Z,2.20
2023-02-03T07:30:17.139Z,2.00
2023-02-03T07:32:52.236Z,1.90
2023-02-03T07:35:20.255Z,1.50
2023-02-03T07:37:47.944Z,2.10
2023-02-03T07:40:16.233Z,1.92
2023-02-03T07:42:47.008Z,1.98
2023-02-03T07:45:17.232Z,2.17
2023-02-03T07:47:44.939Z,2.00
2023-02-03T07:50:13.150Z,1.92
2023-02-03T07:52:40.689Z,1.95
2023-02-03T07:55:09.584Z,1.98
2023-02-03T07:57:37.306Z,3.00
2023-02-03T08:00:05.359Z,2.40
2023-02-03T08:02:41.157Z,2.45
2023-02-03T08:05:10.029Z,3.17
2023-02-03T08:07:37.723Z,3.05
2023-02-03T08:10:06.696Z,2.53
2023-02-03T08:12:34.532Z,2.60
2023-02-03T08:15:02.141Z,2.70
2023-02-03T08:17:29.593Z,2.53
2023-02-03T08:19:57.013Z,2.47
2023-02-03T08:22:24.430Z,2.45
2023-02-03T08:24:51.915Z,2.90
2023-02-03T08:27:22.795Z,2.60
2023-02-03T08:29:50.581Z,3.40
2023-02-03T08:32:22.004Z,3.20
2023-02-03T08:34:50.863Z,3.05
2023-02-03T08:37:22.708Z,3.08
2023-02-03T08:39:51.789Z,2.92
2023-02-03T08:42:20.077Z,3.03
2023-02-03T08:44:49.204Z,3.10
2023-02-03T08:47:18.736Z,3.63
2023-02-03T08:49:46.495Z,2.95
2023-02-03T08:52:16.323Z,3.08
2023-02-03T08:54:45.708Z,2.97
2023-02-03T08:57:13.713Z,2.85
2023-02-03T08:59:44.392Z,3.15
2023-02-03T09:02:18.447Z,2.90
2023-02-03T09:04:47.450Z,3.30
2023-02-03T09:07:15.462Z,3.10
2023-02-03T09:09:42.959Z,3.13
2023-02-03T09:12:12.256Z,3.22
2023-02-03T09:14:40.058Z,3.10
2023-02-03T09:17:08.428Z,2.92
2023-02-03T09:19:36.734Z,3.15
2023-02-03T09:22:05.500Z,3.45
2023-02-03T09:24:33.398Z,3.20
2023-02-03T09:27:01.443Z,3.20
2023-02-03T09:29:28.990Z,3.00
2023-02-03T09:31:56.458Z,4.00
2023-02-03T09:34:24.055Z,3.33
2023-02-03T09:36:51.561Z,3.60
2023-02-03T09:39:19.034Z,3.55
2023-02-03T09:42:13.944Z,3.78
2023-02-03T09:44:49.968Z,3.25
2023-02-03T09:47:27.000Z,2.85
2023-02-03T09:50:00.569Z,3.15
2023-02-03T09:52:39.742Z,3.38
2023-02-03T09:55:40.923Z,3.15
2023-02-03T09:58:14.267Z,3.30
2023-02-03T10:01:05.675Z,2.65
2023-02-03T10:03:51.767Z,3.08
2023-02-03T10:06:46.114Z,3.25
2023-02-03T10:09:26.253Z,2.80
2023-02-03T10:12:39.359Z,3.47
2023-02-03T10:15:57.022Z,3.05
2023-02-03T10:18:33.122Z,3.20
2023-02-03T10:21:13.277Z,3.55
2023-02-03T10:23:44.076Z,3.28
2023-02-03T10:26:23.334Z,3.00
2023-02-03T10:29:06.705Z,3.38
2023-02-03T10:31:37.691Z,3.45
2023-02-03T10:34:13.181Z,2.90
2023-02-03T10:37:24.101Z,3.50
2023-02-03T10:39:54.097Z,3.80
2023-02-03T10:42:22.722Z,3.40
2023-02-03T10:45:00.192Z,3.17
2023-02-03T10:47:34.867Z,3.30
2023-02-03T10:50:32.480Z,3.65
2023-02-03T10:53:18.327Z,3.30
2023-02-03T10:56:01.462Z,3.67
2023-02-03T10:58:33.422Z,3.35
2023-02-03T11:01:12.827Z,3.80
2023-02-03T11:03:58.406Z,3.40
2023-02-03T11:06:26.479Z,3.65
2023-02-03T11:08:54.677Z,4.03
2023-02-03T11:11:27.401Z,3.35
2023-02-03T11:14:03.802Z,3.22
2023-02-03T11:16:36.470Z,3.13
2023-02-03T11:19:22.708Z,3.10
2023-02-03T11:21:56.888Z,2.88
2023-02-03T11:24:29.812Z,3.38
2023-02-03T11:27:09.982Z,3.17
2023-02-03T11:29:44.991Z,2.83
2023-02-03T11:32:29.405Z,3.25
2023-02-03T11:35:15.251Z,3.65
2023-02-03T11:37:46.476Z,2.97
2023-02-03T11:40:18.181Z,3.28
2023-02-03T11:43:02.982Z,2.92
2023-02-03T11:45:44.401Z,3.40
2023-02-03T11:48:32.354Z,3.20
2023-02-03T11:51:14.445Z,3.33
2023-02-03T11:54:23.911Z,3.22
2023-02-03T11:57:13.220Z,3.08
2023-02-03T12:00:13.523Z,3.35
2023-02-03T12:03:12.605Z,3.30
2023-02-03T12:06:00.198Z,3.45
2023-02-03T12:08:44.891Z,2.95
2023-02-03T12:12:00.018Z,3.60
2023-02-03T12:15:00.252Z,2.72
2023-02-03T12:17:59.298Z,3.00
2023-02-03T12:20:54.321Z,3.35
2023-02-03T12:23:49.109Z,3.00
2023-02-03T12:26:32.994Z,3.00
2023-02-03T12:29:13.770Z,3.15
2023-02-03T12:31:54.404Z,3.13
2023-02-03T12:35:12.792Z,2.65
2023-02-03T12:38:54.843Z,2.38
2023-02-03T12:41:38.110Z,3.50
2023-02-03T12:44:19.011Z,2.90
2023-02-03T12:47:15.010Z,2.67
2023-02-03T12:49:52.634Z,3.35
2023-02-03T12:52:38.843Z,3.20
2023-02-03T12:55:23.006Z,2.88
2023-02-03T12:58:10.932Z,3.08
2023-02-03T13:01:04.564Z,2.83
2023-02-03T13:03:43.681Z,2.78
2023-02-03T13:06:33.896Z,2.40
2023-02-03T13:09:28.393Z,2.65
2023-02-03T13:12:11.267Z,3.08
2023-02-03T13:14:47.443Z,2.80
2023-02-03T13:17:26.820Z,2.10
2023-02-03T13:20:13.927Z,2.60
2023-02-03T13:22:41.456Z,2.28
2023-02-03T13:25:20.644Z,2.58
2023-02-03T13:28:09.679Z,2.38
2023-02-03T13:30:49.035Z,3.25
2023-02-03T13:33:47.261Z,2.60
2023-02-03T13:36:42.147Z,2.58
2023-02-03T13:39:42.780Z,2.72
2023-02-03T13:42:31.899Z,2.63
2023-02-03T13:45:14.384Z,2.95
2023-02-03T13:47:50.523Z,2.88
2023-02-03T13:50:26.275Z,2.58
2023-02-03T13:53:00.149Z,2.95
2023-02-03T13:55:37.828Z,2.88
2023-02-03T13:58:23.575Z,2.53
2023-02-03T14:00:50.940Z,2.95
2023-02-03T14:03:43.665Z,2.80
2023-02-03T14:06:39.917Z,2.30
2023-02-03T14:09:34.269Z,2.95
2023-02-03T14:12:29.910Z,2.90
2023-02-03T14:15:04.854Z,4.00
2023-02-03T14:17:35.368Z,4.25
2023-02-03T14:20:29.888Z,3.85
2023-02-03T14:23:04.970Z,3.72
2023-02-03T14:25:47.585Z,3.75
2023-02-03T14:28:25.793Z,4.28
2023-02-03T14:31:06.017Z,4.13
2023-02-03T14:33:48.783Z,4.03
2023-02-03T14:36:38.052Z,3.60
2023-02-03T14:39:55.216Z,3.03
2023-02-03T14:42:31.958Z,2.92
2023-02-03T14:45:30.739Z,3.08
2023-02-03T14:48:33.968Z,3.65
2023-02-03T14:51:21.330Z,3.10
2023-02-03T14:54:25.399Z,3.38
2023-02-03T14:57:20.185Z,2.85
2023-02-03T15:00:10.909Z,3.05
2023-02-03T15:03:08.943Z,3.40
2023-02-03T15:05:43.381Z,3.42
2023-02-03T15:08:44.226Z,2.85
2023-02-03T15:11:34.196Z,3.50
2023-02-03T15:14:34.300Z,3.30
2023-02-03T15:17:13.580Z,3.60
2023-02-03T15:19:43.097Z,3.45
2023-02-03T15:22:26.434Z,3.55
2023-02-03T15:25:05.603Z,3.20
2023-02-03T15:27:33.594Z,3.35
2023-02-03T15:30:29.729Z,3.35
2023-02-03T15:33:16.913Z,3.72
2023-02-03T15:35:48.755Z,3.55
2023-02-03T15:38:31.574Z,3.63
2023-02-03T15:40:59.471Z,3.88
2023-02-03T15:43:38.918Z,3.47
2023-02-03T15:46:39.028Z,3.15
2023-02-03T15:49:29.736Z,4.30
2023-02-03T15:52:26.779Z,3.45
2023-02-03T15:55:17.906Z,3.65
2023-02-03T15:57:50.525Z,4.20
2023-02-03T16:00:33.370Z,4.07
2023-02-03T16:03:05.235Z,3.65
2023-02-03T16:05:39.746Z,3.85
2023-02-03T16:08:42.677Z,4.22
2023-02-03T16:11:34.377Z,3.95
2023-02-03T16:14:07.048Z,3.58
2023-02-03T16:16:49.367Z,4.13
2023-02-03T16:19:29.235Z,4.60
2023-02-03T16:22:00.315Z,3.65
2023-02-03T16:24:46.102Z,4.22
2023-02-03T16:27:20.413Z,4.63
2023-02-03T16:30:07.104Z,4.07
2023-02-03T16:32:53.638Z,4.53
2023-02-03T16:35:39.652Z,3.35
2023-02-03T16:38:35.518Z,4.20
2023-02-03T16:41:31.291Z,4.65
2023-02-03T16:44:17.505Z,3.92
2023-02-03T16:47:06.341Z,4.13
2023-02-03T16:49:52.933Z,4.40
2023-02-03T16:52:20.482Z,4.70
2023-02-03T16:54:47.908Z,4.25
2023-02-03T16:57:15.312Z,4.78
2023-02-03T16:59:42.782Z,4.55
2023-02-03T17:02:11.386Z,4.30
2023-02-03T17:04:38.850Z,4.50
2023-02-03T17:07:06.309Z,4.68
2023-02-03T17:09:36.735Z,4.50
2023-02-03T17:12:04.825Z,4.65
2023-02-03T17:14:32.373Z,4.60
2023-02-03T17:16:59.855Z,3.75
2023-02-03T17:19:27.337Z,4.93
2023-02-03T17:21:55.978Z,4.75
2023-02-03T17:24:24.408Z,4.70
2023-02-03T17:26:52.635Z,4.88
2023-02-03T17:29:20.302Z,4.32
2023-02-03T17:31:47.746Z,4.65
2023-02-03T17:34:15.247Z,4.70
2023-02-03T17:36:42.745Z,4.28
2023-02-03T17:55:34.190Z,5.10
2023-02-03T17:58:01.765Z,4.43
2023-02-03T18:00:29.602Z,6.10
2023-02-03T18:02:57.784Z,4.57
2023-02-03T18:05:25.343Z,5.00
2023-02-03T18:07:52.785Z,6.00
2023-02-03T18:10:20.254Z,5.55
2023-02-03T18:12:47.665Z,5.00
2023-02-03T18:15:15.188Z,5.13
2023-02-03T18:17:42.602Z,4.70
2023-02-03T18:20:11.632Z,5.40
2023-02-03T18:22:39.065Z,5.18
2023-02-03T18:25:06.762Z,4.82
2023-02-03T18:27:34.177Z,5.43
2023-02-03T18:30:01.713Z,5.07
2023-02-03T18:32:29.208Z,5.72
2023-02-03T18:34:56.644Z,5.70
2023-02-03T18:37:24.027Z,5.95
2023-02-03T18:39:51.500Z,5.57
2023-02-03T18:42:18.899Z,5.90
2023-02-03T18:44:46.378Z,5.50
2023-02-03T18:47:13.827Z,6.00
2023-02-03T18:49:42.169Z,5.15
2023-02-03T18:52:09.710Z,5.20
2023-02-03T18:54:37.370Z,5.28
2023-02-03T18:57:05.822Z,5.65
2023-02-03T18:59:33.843Z,5.10
2023-02-03T19:02:01.410Z,4.63
2023-02-03T19:04:28.910Z,4.88
2023-02-03T19:06:56.447Z,5.22
2023-02-03T19:09:25.062Z,5.45
2023-02-03T19:11:52.590Z,4.72
2023-02-03T19:14:20.373Z,5.85
2023-02-03T19:16:50.365Z,4.97
2023-02-03T19:19:17.919Z,5.43
2023-02-03T19:21:46.390Z,4.75
2023-02-03T19:24:16.074Z,5.20
2023-02-03T19:26:43.558Z,4.60
2023-02-03T19:29:11.461Z,5.28
2023-02-03T19:31:39.060Z,4.82
2023-02-03T19:34:06.533Z,4.57
2023-02-03T19:36:33.962Z,4.80
2023-02-03T19:39:01.377Z,4.53
2023-02-03T19:41:30.868Z,4.75
2023-02-03T19:43:58.340Z,5.60
2023-02-03T19:46:28.864Z,4.75
2023-02-03T19:49:01.949Z,4.50
2023-02-03T19:51:29.637Z,5.07
2023-02-03T19:53:58.802Z,5.40
2023-02-03T19:56:26.264Z,4.65
2023-02-03T19:58:54.004Z,5.05
2023-02-03T20:01:24.073Z,4.88
2023-02-03T20:03:51.621Z,4.80
2023-02-03T20:06:19.075Z,5.03
2023-02-03T20:08:46.484Z,4.70
2023-02-03T20:11:14.114Z,4.45
2023-02-03T20:13:43.359Z,5.25
2023-02-03T20:16:11.372Z,5.22
2023-02-03T20:18:38.864Z,5.18
2023-02-03T20:21:06.819Z,5.70
2023-02-03T20:23:34.695Z,4.97
2023-02-03T20:26:03.418Z,5.13
2023-02-03T20:28:30.863Z,5.15
2023-02-03T20:31:01.640Z,5.75
2023-02-03T20:33:30.696Z,5.60
2023-02-03T20:35:58.822Z,5.90
2023-02-03T20:38:26.430Z,4.40
2023-02-03T20:40:53.912Z,5.05
2023-02-03T20:43:25.413Z,5.25
2023-02-03T20:45:53.419Z,5.32
2023-02-03T20:48:23.821Z,5.22
2023-02-03T20:50:52.185Z,5.00
2023-02-03T20:53:23.619Z,5.15
2023-02-03T20:56:01.521Z,4.68
2023-02-03T20:58:35.104Z,5.57
2023-02-03T21:01:04.606Z,5.07
2023-02-03T21:03:50.650Z,4.95
2023-02-03T21:06:20.071Z,4.57
2023-02-03T21:08:48.527Z,4.50
2023-02-03T21:11:20.023Z,4.78
2023-02-03T21:13:49.816Z,5.28
2023-02-03T21:16:27.690Z,5.47
2023-02-03T21:19:02.879Z,4.65
2023-02-03T21:21:42.168Z,4.93
2023-02-03T21:24:29.519Z,5.50
2023-02-03T21:26:58.775Z,5.25
2023-02-03T21:29:33.156Z,5.45
2023-02-03T21:32:01.049Z,5.05
2023-02-03T21:34:31.946Z,4.85
2023-02-03T21:37:25.853Z,5.45
2023-02-03T21:39:53.309Z,4.90
2023-02-03T21:42:42.066Z,5.25
2023-02-03T21:45:21.514Z,5.28
2023-02-03T21:47:51.794Z,5.18
2023-02-03T21:50:40.844Z,4.80
2023-02-03T21:53:08.360Z,4.68
2023-02-03T21:55:42.891Z,4.50
2023-02-03T21:58:22.475Z,5.15
2023-02-03T22:00:52.694Z,5.20
2023-02-03T22:03:27.910Z,5.20
2023-02-03T22:06:20.297Z,5.15
2023-02-03T22:08:54.060Z,4.60
2023-02-03T22:11:25.428Z,4.57
2023-02-03T22:13:53.653Z,4.95
2023-02-03T22:16:22.226Z,4.53
2023-02-03T22:18:51.270Z,4.50
2023-02-03T22:21:19.288Z,5.18
2023-02-03T22:23:48.468Z,5.28
2023-02-03T22:26:17.147Z,4.63
2023-02-03T22:28:46.460Z,4.68
2023-02-03T22:31:14.651Z,4.60
2023-02-03T22:33:43.004Z,4.78
2023-02-03T22:36:11.671Z,4.18
2023-02-03T22:38:41.874Z,4.70
2023-02-03T22:41:12.897Z,4.30
2023-02-03T22:43:41.061Z,4.28
2023-02-03T22:46:09.378Z,4.32
2023-02-03T22:48:36.893Z,4.60
2023-02-03T22:51:04.994Z,4.15
2023-02-03T22:53:32.820Z,4.15
2023-02-03T22:56:00.464Z,4.53
2023-02-03T22:58:27.903Z,3.42
2023-02-03T23:00:59.810Z,4.38
2023-02-03T23:03:32.290Z,4.60
2023-02-03T23:06:01.317Z,5.13
2023-02-03T23:08:43.254Z,4.38
2023-02-03T23:11:15.525Z,4.18
2023-02-03T23:13:51.147Z,3.97
2023-02-03T23:16:34.377Z,4.30
2023-02-03T23:19:05.627Z,4.20
2023-02-03T23:21:49.650Z,4.63
2023-02-03T23:24:19.512Z,4.13
2023-02-03T23:26:47.557Z,4.18
2023-02-03T23:29:15.049Z,4.28
2023-02-03T23:31:42.567Z,4.13
2023-02-03T23:34:28.485Z,4.68
2023-02-03T23:36:55.966Z,3.80
2023-02-03T23:39:23.456Z,5.07
2023-02-03T23:41:50.849Z,4.38
2023-02-03T23:44:19.292Z,4.60
2023-02-03T23:46:46.716Z,4.40
2023-02-03T23:49:14.112Z,4.75
2023-02-03T23:51:41.640Z,4.53
2023-02-03T23:54:09.179Z,5.20
2023-02-03T23:56:36.646Z,5.00
2023-02-03T23:59:04.019Z,4.28
